Time;durP1;ratioP1;P1;durP2;ratioP2;P2;SDS_P1;SDS_P2;PMS_P1;PMS_P2;Temp;Humidity;BMP_temperature;BMP_pressure;BME280_temperature;BME280_humidity;BME280_pressure;Samples;Min_cycle;Max_cycle;Signal;HPM_P1;HPM_P2
2021/10/10 00:00:57;;;;;;;9.32;5.55;;;;;;;;;;4828378;29;32490;-65
2021/10/10 00:03:24;;;;;;;11.50;6.00;;;;;;;;;;4821307;29;32313;-64
2021/10/10 00:05:52;;;;;;;10.25;5.22;;;;;;;;;;4810020;29;32212;-65
2021/10/10 00:08:18;;;;;;;10.02;5.50;;;;;;;;;;4809787;29;35044;-65
2021/10/10 00:10:45;;;;;;;8.70;5.43;;;;;;;;;;4809581;29;32373;-65
2021/10/10 00:13:11;;;;;;;10.50;4.93;;;;;;;;;;4810108;29;32334;-65
2021/10/10 00:15:38;;;;;;;8.95;5.63;;;;;;;;;;4808627;29;32522;-65
2021/10/10 00:18:05;;;;;;;7.28;4.70;;;;;;;;;;4815912;29;34744;-65
2021/10/10 00:20:31;;;;;;;8.88;5.13;;;;;;;;;;4805999;29;32374;-66
2021/10/10 00:22:59;;;;;;;7.95;5.25;;;;;;;;;;4808625;29;32307;-64
2021/10/10 00:25:26;;;;;;;9.88;4.97;;;;;;;;;;4809486;29;32446;-65
2021/10/10 00:27:52;;;;;;;8.50;4.90;;;;;;;;;;4809604;29;32526;-64
2021/10/10 00:30:21;;;;;;;8.57;5.32;;;;;;;;;;4809250;29;32616;-64
2021/10/10 00:32:48;;;;;;;7.15;4.65;;;;;;;;;;4809323;29;32294;-66
2021/10/10 00:35:14;;;;;;;8.30;4.63;;;;;;;;;;4809296;29;32378;-66
2021/10/10 00:37:41;;;;;;;7.75;4.40;;;;;;;;;;4809266;29;32321;-65
2021/10/10 00:40:11;;;;;;;11.60;5.10;;;;;;;;;;4809175;29;34145;-66
2021/10/10 00:42:38;;;;;;;7.82;4.85;;;;;;;;;;4809108;29;32596;-64
2021/10/10 00:45:05;;;;;;;7.57;4.45;;;;;;;;;;4809232;29;32176;-65
2021/10/10 00:47:31;;;;;;;;;;;;;;;;;;4809472;29;32386;-67
2021/10/10 00:49:58;;;;;;;10.45;4.32;;;;;;;;;;4817465;29;32313;-64
2021/10/10 00:52:25;;;;;;;8.82;4.53;;;;;;;;;;4827652;29;32531;-65
2021/10/10 00:54:54;;;;;;;9.25;4.65;;;;;;;;;;4825836;29;32451;-66
2021/10/10 00:57:24;;;;;;;9.50;5.60;;;;;;;;;;4826494;29;32330;-66
2021/10/10 00:59:53;;;;;;;8.75;5.03;;;;;;;;;;4827202;29;32372;-65
2021/10/10 01:02:19;;;;;;;9.48;4.63;;;;;;;;;;4827327;29;34616;-65
2021/10/10 01:04:46;;;;;;;8.55;4.55;;;;;;;;;;4827611;29;32410;-65
2021/10/10 01:07:12;;;;;;;6.63;4.65;;;;;;;;;;4827258;29;32432;-66
2021/10/10 01:09:39;;;;;;;6.68;4.57;;;;;;;;;;4827376;29;32436;-65
2021/10/10 01:12:07;;;;;;;8.50;4.15;;;;;;;;;;4827371;29;32457;-65
2021/10/10 01:14:36;;;;;;;9.75;4.45;;;;;;;;;;4827346;29;32255;-66
2021/10/10 01:17:03;;;;;;;9.45;4.00;;;;;;;;;;4827347;29;32422;-64
2021/10/10 01:19:30;;;;;;;7.50;4.38;;;;;;;;;;4827489;29;32720;-65
2021/10/10 01:21:59;;;;;;;10.98;4.85;;;;;;;;;;4823418;29;32240;-64
2021/10/10 01:24:26;;;;;;;9.35;4.63;;;;;;;;;;4827034;29;34937;-65
2021/10/10 01:26:53;;;;;;;7.22;4.13;;;;;;;;;;4827184;29;32376;-65
2021/10/10 01:29:20;;;;;;;6.07;4.15;;;;;;;;;;4822244;29;32568;-65
2021/10/10 01:31:47;;;;;;;10.82;4.90;;;;;;;;;;4808636;29;32393;-64
2021/10/10 01:34:14;;;;;;;8.80;4.95;;;;;;;;;;4808951;29;32535;-65
2021/10/10 01:36:41;;;;;;;7.63;5.03;;;;;;;;;;4811530;29;32337;-65
2021/10/10 01:39:09;;;;;;;5.97;4.07;;;;;;;;;;4811325;29;32665;-65
2021/10/10 01:41:35;;;;;;;6.65;4.72;;;;;;;;;;4811252;29;32474;-65
2021/10/10 01:44:02;;;;;;;6.50;4.13;;;;;;;;;;4811424;29;32366;-66
2021/10/10 01:46:29;;;;;;;6.38;4.55;;;;;;;;;;4811545;29;34189;-65
2021/10/10 01:48:55;;;;;;;6.43;4.75;;;;;;;;;;4827555;29;32291;-66
2021/10/10 01:51:22;;;;;;;9.35;4.60;;;;;;;;;;4828797;29;32417;-67
2021/10/10 01:53:48;;;;;;;7.65;4.43;;;;;;;;;;4829453;29;32428;-66
2021/10/10 01:56:17;;;;;;;5.25;3.60;;;;;;;;;;4829856;29;32415;-66
2021/10/10 01:58:44;;;;;;;7.72;4.10;;;;;;;;;;4828778;29;32494;-67
2021/10/10 02:01:10;;;;;;;5.93;3.75;;;;;;;;;;4824622;29;32393;-67
2021/10/10 02:03:37;;;;;;;7.07;4.20;;;;;;;;;;4823013;29;32369;-65
2021/10/10 02:06:03;;;;;;;8.95;4.78;;;;;;;;;;4811589;29;32417;-67
2021/10/10 02:08:30;;;;;;;6.68;3.90;;;;;;;;;;4810972;29;34188;-66
2021/10/10 02:10:56;;;;;;;7.55;4.68;;;;;;;;;;4811123;29;32396;-66
2021/10/10 02:13:24;;;;;;;6.63;4.25;;;;;;;;;;4810931;29;32559;-65
2021/10/10 02:15:50;;;;;;;7.03;4.25;;;;;;;;;;4810908;29;32407;-66
2021/10/10 02:18:17;;;;;;;6.63;4.28;;;;;;;;;;4811173;29;32427;-66
2021/10/10 02:20:43;;;;;;;6.80;4.07;;;;;;;;;;4811113;29;32369;-66
2021/10/10 02:23:10;;;;;;;6.13;4.05;;;;;;;;;;4808453;29;32596;-65
2021/10/10 02:25:36;;;;;;;5.88;3.92;;;;;;;;;;4829002;29;32579;-66
2021/10/10 02:28:04;;;;;;;6.65;4.00;;;;;;;;;;4825240;29;32262;-66
2021/10/10 02:30:31;;;;;;;;;;;;;;;;;;4829650;29;34640;-65
2021/10/10 02:32:57;;;;;;;8.35;4.18;;;;;;;;;;4829406;29;32385;-67
2021/10/10 02:35:24;;;;;;;7.75;4.13;;;;;;;;;;4829568;29;32409;-66
2021/10/10 02:37:50;;;;;;;7.65;3.92;;;;;;;;;;4826338;29;32337;-66
2021/10/10 02:40:17;;;;;;;8.88;4.40;;;;;;;;;;4810819;29;35022;-66
2021/10/10 02:42:45;;;;;;;8.20;4.88;;;;;;;;;;4825311;29;32400;-65
2021/10/10 02:45:12;;;;;;;7.07;4.50;;;;;;;;;;4828735;29;32489;-67
2021/10/10 02:47:40;;;;;;;9.38;4.03;;;;;;;;;;4828751;29;32424;-66
2021/10/10 02:50:08;;;;;;;6.97;3.67;;;;;;;;;;4828828;29;32545;-65
2021/10/10 02:52:34;;;;;;;6.75;4.25;;;;;;;;;;4829210;29;34086;-63
2021/10/10 02:55:01;;;;;;;5.50;4.07;;;;;;;;;;4829354;29;32510;-66
2021/10/10 02:57:27;;;;;;;7.75;4.38;;;;;;;;;;4828861;29;32415;-65
2021/10/10 02:59:54;;;;;;;6.03;3.25;;;;;;;;;;4829344;29;32514;-67
2021/10/10 03:02:20;;;;;;;7.85;4.00;;;;;;;;;;4828664;29;33935;-65
2021/10/10 03:04:48;;;;;;;6.63;4.10;;;;;;;;;;4828911;29;32508;-66
2021/10/10 03:07:14;;;;;;;5.93;3.67;;;;;;;;;;4828624;29;32409;-64
2021/10/10 03:09:41;;;;;;;6.32;4.03;;;;;;;;;;4828686;29;32400;-68
2021/10/10 03:12:07;;;;;;;7.07;4.45;;;;;;;;;;4828917;29;32432;-65
2021/10/10 03:14:34;;;;;;;7.70;4.53;;;;;;;;;;4828489;29;35892;-66
2021/10/10 03:17:00;;;;;;;5.78;4.07;;;;;;;;;;4827777;29;32663;-66
2021/10/10 03:19:27;;;;;;;8.15;4.03;;;;;;;;;;4828064;29;32418;-66
2021/10/10 03:21:54;;;;;;;7.50;3.70;;;;;;;;;;4828711;29;32416;-66
2021/10/10 03:24:21;;;;;;;6.80;3.70;;;;;;;;;;4828488;29;34779;-66
2021/10/10 03:26:47;;;;;;;5.03;3.58;;;;;;;;;;4828862;29;32416;-66
2021/10/10 03:29:14;;;;;;;7.30;4.18;;;;;;;;;;4824535;29;33018;-67
2021/10/10 03:31:40;;;;;;;5.82;3.85;;;;;;;;;;4809327;29;32728;-68
2021/10/10 03:34:07;;;;;;;5.95;3.47;;;;;;;;;;4810276;29;32493;-66
2021/10/10 03:36:33;;;;;;;6.60;3.60;;;;;;;;;;4809767;29;35159;-66
2021/10/10 03:39:01;;;;;;;5.53;3.40;;;;;;;;;;4810146;29;32746;-66
2021/10/10 03:41:28;;;;;;;5.60;3.58;;;;;;;;;;4809755;29;32539;-66
2021/10/10 03:43:54;;;;;;;7.47;4.28;;;;;;;;;;4810365;29;32645;-65
2021/10/10 03:46:20;;;;;;;9.32;4.65;;;;;;;;;;4809720;29;35046;-66
2021/10/10 03:48:47;;;;;;;6.97;3.80;;;;;;;;;;4809640;29;32439;-66
2021/10/10 03:51:13;;;;;;;7.90;4.07;;;;;;;;;;4809930;29;32524;-66
2021/10/10 03:54:09;;;;;;;8.50;3.42;;;;;;;;;;4816201;29;34251;-66
2021/10/10 03:56:28;;;;;;;5.80;3.25;;;;;;;;;;4828481;29;32446;-67
2021/10/10 03:58:54;;;;;;;5.22;3.53;;;;;;;;;;4827616;29;36080;-67
2021/10/10 04:01:21;;;;;;;5.40;3.10;;;;;;;;;;4827708;29;32516;-68
2021/10/10 04:03:48;;;;;;;11.27;3.30;;;;;;;;;;4818187;29;32340;-64
2021/10/10 04:06:14;;;;;;;7.82;3.40;;;;;;;;;;4808676;29;32364;-64
2021/10/10 04:08:44;;;;;;;9.02;3.40;;;;;;;;;;4808917;29;35236;-64
2021/10/10 04:11:11;;;;;;;6.75;3.67;;;;;;;;;;4814419;29;32266;-65
2021/10/10 04:13:39;;;;;;;5.65;3.75;;;;;;;;;;4827843;29;32421;-64
2021/10/10 04:16:05;;;;;;;6.30;3.30;;;;;;;;;;4827603;29;32588;-66
2021/10/10 04:18:33;;;;;;;6.65;3.58;;;;;;;;;;4827975;29;32277;-65
2021/10/10 04:21:00;;;;;;;5.97;3.47;;;;;;;;;;4827632;29;34791;-66
2021/10/10 04:23:26;;;;;;;6.38;3.80;;;;;;;;;;4827962;29;32455;-67
2021/10/10 04:25:52;;;;;;;6.35;3.40;;;;;;;;;;4827950;29;32186;-65
2021/10/10 04:28:19;;;;;;;7.88;3.30;;;;;;;;;;4827968;29;32352;-65
2021/10/10 04:30:47;;;;;;;4.50;3.20;;;;;;;;;;4827542;29;34630;-65
2021/10/10 04:33:13;;;;;;;6.10;3.20;;;;;;;;;;4820468;29;32446;-64
2021/10/10 04:35:40;;;;;;;6.47;3.17;;;;;;;;;;4827754;29;32348;-64
2021/10/10 04:38:06;;;;;;;6.65;3.47;;;;;;;;;;4813600;29;32488;-64
2021/10/10 04:40:33;;;;;;;6.50;3.42;;;;;;;;;;4827855;29;32384;-66
2021/10/10 04:42:59;;;;;;;;;;;;;;;;;;4821930;29;35179;-67
2021/10/10 04:45:25;;;;;;;6.78;3.42;;;;;;;;;;4809117;29;32501;-64
2021/10/10 04:47:53;;;;;;;8.07;3.17;;;;;;;;;;4809382;29;32589;-67
2021/10/10 04:50:20;;;;;;;6.93;3.40;;;;;;;;;;4809540;29;32685;-67
2021/10/10 04:52:46;;;;;;;5.70;3.75;;;;;;;;;;4808344;29;34680;-66
2021/10/10 04:55:12;;;;;;;;;;;;;;;;;;4809730;29;32409;-66
2021/10/10 04:57:39;;;;;;;7.00;3.40;;;;;;;;;;4809104;29;32386;-66
2021/10/10 05:00:06;;;;;;;;;;;;;;;;;;4808653;29;32530;-65
2021/10/10 05:02:37;;;;;;;8.98;3.35;;;;;;;;;;4808758;29;32810;-65
2021/10/10 05:05:05;;;;;;;;;;;;;;;;;;4812981;29;33941;-64
2021/10/10 05:07:32;;;;;;;5.40;3.40;;;;;;;;;;4836730;29;32435;-66
2021/10/10 05:09:58;;;;;;;5.85;3.40;;;;;;;;;;4839055;29;32749;-65
2021/10/10 05:12:26;;;;;;;5.55;3.40;;;;;;;;;;4839149;29;32512;-67
2021/10/10 05:14:53;;;;;;;6.28;3.22;;;;;;;;;;4838448;29;35633;-67
2021/10/10 05:17:20;;;;;;;7.53;3.50;;;;;;;;;;4842129;29;32551;-65
2021/10/10 05:19:46;;;;;;;6.20;3.38;;;;;;;;;;4837571;29;32490;-66
2021/10/10 05:22:14;;;;;;;6.38;3.40;;;;;;;;;;4833788;29;32372;-67
2021/10/10 05:24:40;;;;;;;8.25;3.25;;;;;;;;;;4830607;29;32360;-68
2021/10/10 05:27:07;;;;;;;6.13;3.55;;;;;;;;;;4829041;29;34049;-66
2021/10/10 05:29:33;;;;;;;4.85;3.20;;;;;;;;;;4829668;29;32960;-68
2021/10/10 05:32:00;;;;;;;5.53;3.33;;;;;;;;;;4829047;29;32992;-65
2021/10/10 05:34:26;;;;;;;6.18;3.35;;;;;;;;;;4829518;29;32666;-66
2021/10/10 05:36:54;;;;;;;5.07;3.10;;;;;;;;;;4826225;29;34587;-67
2021/10/10 05:39:22;;;;;;;5.63;3.13;;;;;;;;;;4828346;29;32484;-67
2021/10/10 05:41:49;;;;;;;4.50;2.90;;;;;;;;;;4824695;29;32464;-66
2021/10/10 05:44:15;;;;;;;5.50;3.00;;;;;;;;;;4828715;29;32555;-67
2021/10/10 05:46:42;;;;;;;5.95;3.53;;;;;;;;;;4828604;29;32469;-65
2021/10/10 05:49:08;;;;;;;5.85;3.10;;;;;;;;;;4817865;29;35318;-68
2021/10/10 05:51:35;;;;;;;5.72;3.10;;;;;;;;;;4829474;29;32392;-66
2021/10/10 05:54:02;;;;;;;5.93;3.58;;;;;;;;;;4829339;29;32442;-67
2021/10/10 05:56:33;;;;;;;6.75;3.20;;;;;;;;;;4829711;29;32555;-66
2021/10/10 05:59:06;;;;;;;7.03;3.63;;;;;;;;;;4829218;29;35810;-67
2021/10/10 06:01:32;;;;;;;5.68;3.72;;;;;;;;;;4829297;29;32348;-68
2021/10/10 06:03:59;;;;;;;7.03;3.47;;;;;;;;;;4828974;29;32613;-64
2021/10/10 06:06:26;;;;;;;5.93;3.72;;;;;;;;;;4830510;29;32544;-67
2021/10/10 06:08:53;;;;;;;4.80;3.33;;;;;;;;;;4828748;29;32400;-65
2021/10/10 06:11:20;;;;;;;7.97;3.72;;;;;;;;;;4828231;29;35649;-66
2021/10/10 06:13:48;;;;;;;8.45;3.53;;;;;;;;;;4828251;29;32385;-65
2021/10/10 06:16:15;;;;;;;5.53;3.25;;;;;;;;;;4828411;29;32346;-66
2021/10/10 06:18:42;;;;;;;5.72;3.78;;;;;;;;;;4828700;29;32368;-66
2021/10/10 06:21:08;;;;;;;6.43;3.70;;;;;;;;;;4824737;29;34846;-65
2021/10/10 06:23:35;;;;;;;7.10;4.28;;;;;;;;;;4829139;29;32515;-66
2021/10/10 06:26:01;;;;;;;15.07;4.15;;;;;;;;;;4828998;29;32549;-66
2021/10/10 06:28:28;;;;;;;6.78;3.92;;;;;;;;;;4829207;29;32297;-62
2021/10/10 06:30:56;;;;;;;8.40;4.10;;;;;;;;;;4828645;29;32293;-64
2021/10/10 06:33:22;;;;;;;6.03;4.05;;;;;;;;;;4829066;29;35245;-66
2021/10/10 06:35:48;;;;;;;;;;;;;;;;;;4827664;29;32466;-67
2021/10/10 06:38:15;;;;;;;8.05;4.18;;;;;;;;;;4828441;29;32444;-66
2021/10/10 06:40:41;;;;;;;7.18;3.85;;;;;;;;;;4823641;29;32344;-64
2021/10/10 06:43:07;;;;;;;8.38;4.32;;;;;;;;;;4826415;29;34026;-65
2021/10/10 06:45:34;;;;;;;;;;;;;;;;;;4830278;29;32571;-66
2021/10/10 06:48:01;;;;;;;7.28;4.30;;;;;;;;;;4829902;29;32412;-67
2021/10/10 06:50:28;;;;;;;9.55;4.50;;;;;;;;;;4836286;29;32404;-66
2021/10/10 06:52:54;;;;;;;7.40;4.72;;;;;;;;;;4835327;29;32423;-66
2021/10/10 06:55:21;;;;;;;;;;;;;;;;;;4837113;29;34284;-66
2021/10/10 06:57:47;;;;;;;9.82;4.45;;;;;;;;;;4834225;29;32443;-66
2021/10/10 07:00:15;;;;;;;11.60;5.15;;;;;;;;;;4836151;29;32509;-65
2021/10/10 07:02:42;;;;;;;10.98;5.35;;;;;;;;;;4837660;29;32473;-67
2021/10/10 07:05:12;;;;;;;10.18;4.95;;;;;;;;;;4834774;29;34572;-66
2021/10/10 07:07:39;;;;;;;11.15;5.13;;;;;;;;;;4835547;29;33948;-68
2021/10/10 07:10:08;;;;;;;13.32;5.75;;;;;;;;;;4837466;29;32462;-67
2021/10/10 07:12:35;;;;;;;10.30;5.35;;;;;;;;;;4830867;29;32520;-66
2021/10/10 07:15:04;;;;;;;12.82;5.63;;;;;;;;;;4842705;29;32375;-65
2021/10/10 07:17:31;;;;;;;11.32;5.47;;;;;;;;;;4833643;29;34130;-65
2021/10/10 07:22:28;;;;;;;11.93;5.15;;;;;;;;;;4826630;29;32394;-66
2021/10/10 07:25:00;;;;;;;8.77;5.03;;;;;;;;;;4828472;29;32404;-67
2021/10/10 07:27:26;;;;;;;10.10;5.47;;;;;;;;;;4827886;29;34758;-65
2021/10/10 07:29:53;;;;;;;11.25;5.60;;;;;;;;;;4828289;29;32382;-65
2021/10/10 07:32:19;;;;;;;9.68;5.35;;;;;;;;;;4827634;29;32238;-65
2021/10/10 07:34:45;;;;;;;;;;;;;;;;;;4827074;29;32338;-67
2021/10/10 07:37:12;;;;;;;7.90;5.10;;;;;;;;;;4826415;29;32396;-66
2021/10/10 07:39:40;;;;;;;;;;;;;;;;;;4827957;29;34355;-66
2021/10/10 07:42:06;;;;;;;10.40;4.85;;;;;;;;;;4827045;29;32733;-66
2021/10/10 07:44:33;;;;;;;;;;;;;;;;;;4827616;29;32325;-66
2021/10/10 07:49:45;;;;;;;7.47;4.82;;;;;;;;;;4817342;29;34125;-66
2021/10/10 07:52:12;;;;;;;10.07;4.78;;;;;;;;;;4828688;29;32364;-63
2021/10/10 07:54:40;;;;;;;10.98;5.07;;;;;;;;;;4829175;29;32641;-66
2021/10/10 07:57:07;;;;;;;10.02;4.78;;;;;;;;;;4827741;29;32445;-65
2021/10/10 07:59:33;;;;;;;14.30;5.45;;;;;;;;;;4823638;29;32639;-68
2021/10/10 08:01:59;;;;;;;;;;;;;;;;;;4827899;29;36198;-67
2021/10/10 08:04:27;;;;;;;11.75;5.22;;;;;;;;;;4825141;29;32406;-63
2021/10/10 08:06:54;;;;;;;11.13;5.47;;;;;;;;;;4825610;29;32427;-65
2021/10/10 08:09:21;;;;;;;10.48;5.60;;;;;;;;;;4825052;29;32599;-67
2021/10/10 08:11:49;;;;;;;;;;;;;;;;;;4823448;29;35689;-65
2021/10/10 08:14:16;;;;;;;13.80;5.70;;;;;;;;;;4824941;29;32435;-64
2021/10/10 08:16:44;;;;;;;10.43;5.45;;;;;;;;;;4827747;29;32498;-65
2021/10/10 08:19:11;;;;;;;14.32;5.25;;;;;;;;;;4827740;29;32305;-66
2021/10/10 08:21:37;;;;;;;12.38;5.40;;;;;;;;;;4827706;29;32349;-64
2021/10/10 08:24:04;;;;;;;10.95;5.63;;;;;;;;;;4827213;29;34231;-67
2021/10/10 08:26:32;;;;;;;11.48;5.82;;;;;;;;;;4827169;29;32479;-67
2021/10/10 08:29:00;;;;;;;11.07;6.25;;;;;;;;;;4826312;29;32367;-66
2021/10/10 08:31:28;;;;;;;14.55;5.88;;;;;;;;;;4826848;29;32407;-65
2021/10/10 08:33:54;;;;;;;12.52;5.72;;;;;;;;;;4831347;29;35708;-66
2021/10/10 08:36:21;;;;;;;11.32;5.38;;;;;;;;;;4846046;29;32490;-65
2021/10/10 08:38:48;;;;;;;9.20;5.50;;;;;;;;;;4844635;29;32673;-64
2021/10/10 08:41:20;;;;;;;10.20;5.00;;;;;;;;;;4828562;29;32484;-67
2021/10/10 08:43:48;;;;;;;10.02;5.57;;;;;;;;;;4835555;29;32514;-64
2021/10/10 08:46:24;;;;;;;12.60;5.65;;;;;;;;;;4822673;29;34067;-64
2021/10/10 08:48:51;;;;;;;10.88;5.00;;;;;;;;;;4826762;29;32345;-65
2021/10/10 08:51:18;;;;;;;11.30;5.63;;;;;;;;;;4829876;29;32452;-65
2021/10/10 08:53:45;;;;;;;8.27;4.88;;;;;;;;;;4810806;29;32314;-65
2021/10/10 08:56:13;;;;;;;11.70;5.43;;;;;;;;;;4824850;29;35591;-63
2021/10/10 08:58:42;;;;;;;10.85;5.60;;;;;;;;;;4826375;29;32728;-64
2021/10/10 09:01:16;;;;;;;11.20;5.75;;;;;;;;;;4825284;29;32467;-64
2021/10/10 09:03:48;;;;;;;10.75;5.55;;;;;;;;;;4824508;29;32479;-64
2021/10/10 09:06:15;;;;;;;10.35;5.22;;;;;;;;;;4823041;29;32497;-65
2021/10/10 09:08:41;;;;;;;;;;;;;;;;;;4823771;29;34146;-65
2021/10/10 09:11:09;;;;;;;9.10;4.85;;;;;;;;;;4825656;29;32424;-64
2021/10/10 09:13:37;;;;;;;8.30;5.07;;;;;;;;;;4824247;29;32580;-64
2021/10/10 09:16:06;;;;;;;10.30;4.53;;;;;;;;;;4823667;29;32717;-64
2021/10/10 09:18:34;;;;;;;10.65;4.78;;;;;;;;;;4824943;29;33962;-65
2021/10/10 09:21:18;;;;;;;10.73;4.90;;;;;;;;;;4823326;29;33744;-65
2021/10/10 09:23:49;;;;;;;9.73;4.97;;;;;;;;;;4824516;29;32721;-65
2021/10/10 09:26:15;;;;;;;11.45;5.07;;;;;;;;;;4822724;29;32412;-65
2021/10/10 09:28:42;;;;;;;9.52;4.45;;;;;;;;;;4825933;29;32295;-64
2021/10/10 09:31:09;;;;;;;9.75;4.75;;;;;;;;;;4826798;29;34536;-63
2021/10/10 09:33:39;;;;;;;9.38;5.13;;;;;;;;;;4808698;29;32515;-64
2021/10/10 09:36:14;;;;;;;10.55;5.00;;;;;;;;;;4829722;29;32471;-65
2021/10/10 09:38:46;;;;;;;8.50;4.60;;;;;;;;;;4840307;29;32320;-65
2021/10/10 09:41:30;;;;;;;8.32;4.40;;;;;;;;;;4817593;29;35466;-65
2021/10/10 09:44:21;;;;;;;10.52;4.63;;;;;;;;;;4818295;29;32707;-65
2021/10/10 09:46:49;;;;;;;10.88;5.05;;;;;;;;;;4820960;29;32432;-64
2021/10/10 09:49:24;;;;;;;8.45;5.13;;;;;;;;;;4824674;29;32928;-65
2021/10/10 09:51:52;;;;;;;10.38;4.47;;;;;;;;;;4815428;29;32624;-65
2021/10/10 09:54:19;;;;;;;10.32;4.78;;;;;;;;;;4815639;29;35022;-64
2021/10/10 09:57:05;;;;;;;8.52;4.95;;;;;;;;;;4822816;29;32324;-64
2021/10/10 09:59:31;;;;;;;8.82;4.10;;;;;;;;;;4825030;29;32328;-64
2021/10/10 10:01:58;;;;;;;7.05;4.10;;;;;;;;;;4828797;29;32542;-64
2021/10/10 10:04:26;;;;;;;10.23;4.28;;;;;;;;;;4811030;29;35937;-64
2021/10/10 10:06:53;;;;;;;12.00;4.32;;;;;;;;;;4816841;29;32568;-66
2021/10/10 10:09:21;;;;;;;9.52;4.30;;;;;;;;;;4820793;29;32573;-64
2021/10/10 10:11:48;;;;;;;11.07;4.78;;;;;;;;;;4817242;29;32496;-66
2021/10/10 10:14:17;;;;;;;12.93;4.20;;;;;;;;;;4817334;29;32569;-65
2021/10/10 10:16:47;;;;;;;8.13;4.35;;;;;;;;;;4819409;29;34152;-65
2021/10/10 10:19:16;;;;;;;9.82;4.10;;;;;;;;;;4821206;29;32615;-64
2021/10/10 10:21:45;;;;;;;9.25;3.97;;;;;;;;;;4820657;29;33050;-64
2021/10/10 10:24:13;;;;;;;10.10;3.70;;;;;;;;;;4819877;29;32522;-64
2021/10/10 10:26:43;;;;;;;9.00;3.97;;;;;;;;;;4823479;29;34538;-65
2021/10/10 10:29:15;;;;;;;8.32;3.63;;;;;;;;;;4818582;29;32617;-63
2021/10/10 10:31:45;;;;;;;9.82;3.70;;;;;;;;;;4818592;29;32632;-63
2021/10/10 10:34:19;;;;;;;9.70;3.97;;;;;;;;;;4824950;29;32417;-64
2021/10/10 10:37:01;;;;;;;8.85;3.78;;;;;;;;;;4827005;29;32904;-64
2021/10/10 10:39:45;;;;;;;6.90;3.60;;;;;;;;;;4826467;29;34430;-63
2021/10/10 10:42:14;;;;;;;8.55;3.60;;;;;;;;;;4826396;29;32376;-64
2021/10/10 10:44:43;;;;;;;7.63;3.78;;;;;;;;;;4827801;29;32313;-64
2021/10/10 10:47:12;;;;;;;9.75;3.92;;;;;;;;;;4828869;29;32439;-65
2021/10/10 10:50:00;;;;;;;9.50;4.07;;;;;;;;;;4828598;29;34909;-65
2021/10/10 10:52:30;;;;;;;8.52;4.00;;;;;;;;;;4823722;29;32550;-65
2021/10/10 10:54:58;;;;;;;7.75;3.90;;;;;;;;;;4827620;29;32340;-63
2021/10/10 10:57:30;;;;;;;9.07;3.50;;;;;;;;;;4828229;29;32403;-64
2021/10/10 11:00:06;;;;;;;8.02;3.67;;;;;;;;;;4824048;29;32427;-64
2021/10/10 11:02:59;;;;;;;6.07;3.53;;;;;;;;;;4827709;29;32444;-65
2021/10/10 11:05:38;;;;;;;7.28;4.03;;;;;;;;;;4809706;29;32386;-65
2021/10/10 11:08:07;;;;;;;7.20;3.40;;;;;;;;;;4809459;29;32520;-63
2021/10/10 11:10:35;;;;;;;6.25;3.45;;;;;;;;;;4810357;29;32389;-64
2021/10/10 11:13:28;;;;;;;7.10;3.22;;;;;;;;;;4810716;29;33953;-64
2021/10/10 11:15:57;;;;;;;6.00;3.20;;;;;;;;;;4828718;29;32513;-65
2021/10/10 11:18:26;;;;;;;6.78;3.17;;;;;;;;;;4828333;29;32495;-64
2021/10/10 11:20:55;;;;;;;5.00;2.95;;;;;;;;;;4828507;29;32434;-65
2021/10/10 11:23:22;;;;;;;6.72;3.22;;;;;;;;;;4828533;29;32270;-64
2021/10/10 11:25:49;;;;;;;8.30;3.42;;;;;;;;;;4828597;29;32417;-65
2021/10/10 11:28:18;;;;;;;8.32;3.13;;;;;;;;;;4828410;29;32440;-65
2021/10/10 11:30:46;;;;;;;8.15;3.08;;;;;;;;;;4828379;29;32482;-65
2021/10/10 11:33:13;;;;;;;6.15;3.10;;;;;;;;;;4829077;29;32472;-68
2021/10/10 11:35:44;;;;;;;6.63;3.40;;;;;;;;;;4828467;29;35259;-67
2021/10/10 11:38:12;;;;;;;7.50;4.25;;;;;;;;;;4827621;29;32511;-64
2021/10/10 11:40:58;;;;;;;6.63;3.00;;;;;;;;;;4828625;29;32607;-65
2021/10/10 11:43:25;;;;;;;5.97;3.25;;;;;;;;;;4827979;29;32273;-65
2021/10/10 11:45:58;;;;;;;5.47;3.38;;;;;;;;;;4828590;29;32439;-65
2021/10/10 11:48:35;;;;;;;5.68;3.30;;;;;;;;;;4828389;29;32610;-65
2021/10/10 11:51:02;;;;;;;5.70;3.65;;;;;;;;;;4828474;29;32411;-65
2021/10/10 11:53:44;;;;;;;6.57;3.30;;;;;;;;;;4828256;29;32752;-65
2021/10/10 11:56:11;;;;;;;8.68;3.47;;;;;;;;;;4828483;29;32285;-64
2021/10/10 11:58:37;;;;;;;5.45;2.80;;;;;;;;;;4827943;29;34472;-65
2021/10/10 12:01:09;;;;;;;8.30;3.63;;;;;;;;;;4828147;29;32432;-64
2021/10/10 12:03:41;;;;;;;6.15;3.25;;;;;;;;;;4827931;29;32456;-64
2021/10/10 12:06:19;;;;;;;6.65;3.22;;;;;;;;;;4823624;29;32389;-63
2021/10/10 12:08:46;;;;;;;6.05;3.28;;;;;;;;;;4819960;29;32254;-63
2021/10/10 12:11:12;;;;;;;7.22;3.60;;;;;;;;;;4809159;29;32654;-66
2021/10/10 12:13:53;;;;;;;5.80;3.20;;;;;;;;;;4820178;29;32371;-63
2021/10/10 12:16:22;;;;;;;6.38;3.63;;;;;;;;;;4828018;29;32375;-64
2021/10/10 12:18:48;;;;;;;7.30;3.30;;;;;;;;;;4826842;29;32365;-64
2021/10/10 12:21:19;;;;;;;;;;;;;;;;;;4828447;29;35156;-65
2021/10/10 12:23:46;;;;;;;7.95;3.72;;;;;;;;;;4828227;29;32598;-64
2021/10/10 12:26:13;;;;;;;5.50;3.10;;;;;;;;;;4827743;29;32432;-64
2021/10/10 12:28:39;;;;;;;;;;;;;;;;;;4828521;29;32262;-68
2021/10/10 12:31:07;;;;;;;6.43;4.15;;;;;;;;;;4827956;29;32295;-64
2021/10/10 12:33:40;;;;;;;6.40;3.72;;;;;;;;;;4827632;29;32413;-64
2021/10/10 12:36:09;;;;;;;8.00;4.20;;;;;;;;;;4810946;29;32251;-65
2021/10/10 12:38:39;;;;;;;7.55;4.00;;;;;;;;;;4827341;29;32306;-64
2021/10/10 12:41:25;;;;;;;6.28;3.67;;;;;;;;;;4828016;29;32456;-65
2021/10/10 12:43:52;;;;;;;;;;;;;;;;;;4790992;29;35026;-66
2021/10/10 12:46:21;;;;;;;8.30;3.65;;;;;;;;;;4791234;29;32444;-64
2021/10/10 12:49:00;;;;;;;5.80;3.67;;;;;;;;;;4790937;29;32388;-65
2021/10/10 12:51:26;;;;;;;8.27;3.67;;;;;;;;;;4790608;29;32339;-66
2021/10/10 12:54:10;;;;;;;6.90;3.80;;;;;;;;;;4790675;29;32644;-64
2021/10/10 12:56:36;;;;;;;6.72;3.88;;;;;;;;;;4774583;29;32453;-63
2021/10/10 12:59:03;;;;;;;6.15;3.58;;;;;;;;;;4772703;29;32522;-65
2021/10/10 13:01:32;;;;;;;7.82;4.35;;;;;;;;;;4776668;29;32639;-64
2021/10/10 13:04:00;;;;;;;7.55;4.07;;;;;;;;;;4790645;29;32429;-64
2021/10/10 13:06:27;;;;;;;5.20;3.60;;;;;;;;;;4789891;29;34607;-65
2021/10/10 13:08:55;;;;;;;7.38;4.07;;;;;;;;;;4790620;29;32464;-64
2021/10/10 13:11:24;;;;;;;7.95;3.63;;;;;;;;;;4786176;29;32397;-66
2021/10/10 13:13:50;;;;;;;8.80;4.47;;;;;;;;;;4786301;29;32532;-67
2021/10/10 13:16:18;;;;;;;8.55;4.40;;;;;;;;;;4790051;29;34236;-64
2021/10/10 13:18:45;;;;;;;7.53;4.50;;;;;;;;;;4790042;29;32742;-65
2021/10/10 13:21:14;;;;;;;6.40;4.32;;;;;;;;;;4790160;29;32411;-67
2021/10/10 13:23:41;;;;;;;8.18;4.90;;;;;;;;;;4803655;29;32377;-64
2021/10/10 13:26:07;;;;;;;;;;;;;;;;;;4790587;29;32503;-65
2021/10/10 13:28:34;;;;;;;7.15;4.30;;;;;;;;;;4790309;29;34057;-64
2021/10/10 13:31:04;;;;;;;7.80;4.32;;;;;;;;;;4791830;29;32208;-65
2021/10/10 13:33:33;;;;;;;9.13;4.95;;;;;;;;;;4792757;29;32433;-64
2021/10/10 13:36:00;;;;;;;10.45;5.35;;;;;;;;;;4806524;29;32334;-64
2021/10/10 13:38:28;;;;;;;;;;;;;;;;;;4792981;29;33998;-66
2021/10/10 13:40:55;;;;;;;9.18;5.72;;;;;;;;;;4792827;29;32692;-64
2021/10/10 13:43:22;;;;;;;8.77;5.53;;;;;;;;;;4824120;29;32309;-64
2021/10/10 13:46:11;;;;;;;10.07;5.10;;;;;;;;;;4829702;29;32420;-66
2021/10/10 13:48:36;;;;;;;10.50;5.50;;;;;;;;;;4828541;29;32401;-64
2021/10/10 13:51:05;;;;;;;10.02;5.45;;;;;;;;;;4829142;29;34631;-64
2021/10/10 13:53:33;;;;;;;10.95;5.47;;;;;;;;;;4829335;29;32360;-64
2021/10/10 13:56:00;;;;;;;15.73;6.55;;;;;;;;;;4829415;29;32454;-64
2021/10/10 13:58:26;;;;;;;12.07;6.32;;;;;;;;;;4829448;29;32456;-64
2021/10/10 14:00:54;;;;;;;16.02;8.63;;;;;;;;;;4829181;29;34250;-64
2021/10/10 14:03:21;;;;;;;17.17;8.85;;;;;;;;;;4828852;29;32389;-64
2021/10/10 14:05:50;;;;;;;14.50;8.68;;;;;;;;;;4829571;29;32507;-64
2021/10/10 14:08:18;;;;;;;15.77;8.13;;;;;;;;;;4829377;29;32455;-67
2021/10/10 14:10:48;;;;;;;13.43;7.10;;;;;;;;;;4829181;29;32235;-65
2021/10/10 14:13:15;;;;;;;13.27;7.82;;;;;;;;;;4829099;29;35104;-64
2021/10/10 14:15:41;;;;;;;;;;;;;;;;;;4829589;29;32489;-64
2021/10/10 14:18:08;;;;;;;15.43;7.22;;;;;;;;;;4819503;29;32779;-64
2021/10/10 14:20:35;;;;;;;15.10;7.47;;;;;;;;;;4818265;29;32266;-64
2021/10/10 14:23:01;;;;;;;15.27;6.85;;;;;;;;;;4828969;29;35214;-66
2021/10/10 14:25:28;;;;;;;13.40;8.05;;;;;;;;;;4828953;29;32735;-66
2021/10/10 14:27:58;;;;;;;12.70;7.30;;;;;;;;;;4828620;29;32965;-66
2021/10/10 14:30:25;;;;;;;13.27;7.72;;;;;;;;;;4828926;29;32517;-64
2021/10/10 14:32:54;;;;;;;15.98;7.22;;;;;;;;;;4829175;29;32467;-64
2021/10/10 14:35:21;;;;;;;14.63;7.60;;;;;;;;;;4828990;29;33947;-64
2021/10/10 14:37:48;;;;;;;12.70;7.53;;;;;;;;;;4828904;29;32430;-64
2021/10/10 14:40:15;;;;;;;13.43;7.60;;;;;;;;;;4828941;29;32278;-67
2021/10/10 14:42:47;;;;;;;18.30;8.52;;;;;;;;;;4827699;29;32439;-64
2021/10/10 14:45:19;;;;;;;18.70;8.38;;;;;;;;;;4828729;29;35398;-64
2021/10/10 14:50:16;;;;;;;17.90;8.68;;;;;;;;;;4828908;29;32584;-64
2021/10/10 14:52:43;;;;;;;24.65;9.35;;;;;;;;;;4828859;29;32840;-65
2021/10/10 14:55:09;;;;;;;17.50;9.15;;;;;;;;;;4829118;29;32305;-67
2021/10/10 14:57:39;;;;;;;19.73;10.52;;;;;;;;;;4820947;29;34294;-63
2021/10/10 15:00:08;;;;;;;22.17;11.43;;;;;;;;;;4808882;29;32367;-64